Latest Coastal Weather Observations for Orbost

IDV60701

Issued at 9:15 pm EST Friday 25 July 2014 (issued every 10 minutes, with the page automatically refreshed every 10 minutes)

About coastal observations | Map of coastal stations | Coastal observations for VIC | Marine services | Other Formats
Station Details ID: 084145 Name: ORBOST Lat: -37.69 Lon: 148.47 Height: 62.65 m
Data from the previous 72 hours. | See also: Recent months at Orbost
Date/Time
EST
Temp

°C
Wind Pressure Rain
since 9am
mm
Weather Cloud Vis
km
Sea
Height
m
Swell
Dir
 
Speed
knots
Gust
knots
hPa Trend Height
m
Period
s
Dir
25/09:00pm 11.6 N 1 3 1020.2 - 0.2 - - - - - - -
25/08:30pm 12.9 N 2 3 1020.1 - 0.2 - - - - - - -
25/08:00pm 13.7 N 1 2 1020.0 - 0.2 - - - - - - -
25/07:30pm 12.8 N 2 3 1019.4 - 0.2 - - - - - - -
25/07:00pm 13.0 N 2 3 1019.3 - 0.2 - - - - - - -
25/06:30pm 14.3 CALM 0 2 1018.8 - 0.2 - - - - - - -
25/06:00pm 14.2 NW 2 4 1018.6 - 0.2 - - - - - - -
25/05:30pm 14.0 CALM 0 0 1018.1 - 0.2 - - - - - - -
25/05:00pm 15.3 CALM 0 0 1017.8 - 0.2 - - - - - - -
25/04:30pm 14.9 CALM 0 0 1017.4 - 0.2 - - - - - - -
25/04:00pm 16.5 NW 3 6 1017.4 - 0.2 - - - - - - -
25/03:30pm 18.3 NW 6 9 1017.1 - 0.2 - - - - - - -
25/03:00pm 19.0 NW 7 11 1016.9 - 0.2 - - - - - - -
25/02:30pm 19.2 NNW 6 9 1016.8 - 0.2 - - - - - - -
25/02:00pm 19.4 NNW 6 8 1017.0 - 0.2 - - - - - - -
25/01:30pm 19.1 WNW 8 12 1017.1 - 0.2 - - - - - - -
25/01:00pm 18.7 NNW 7 11 1017.4 - 0.2 - - - - - - -
25/12:30pm 17.6 WNW 5 8 1017.6 - 0.2 - - - - - - -
25/12:00pm 18.9 NW 5 9 1017.8 - 0.0 - - - - - - -
25/11:30am 18.4 NW 3 8 1018.0 - 0.0 - - - - - - -
25/11:00am 17.1 NW 2 4 1018.3 - 0.0 - - - - - - -
25/10:30am 15.6 WNW 1 3 1018.2 - 0.0 - - - - - - -
25/10:00am 13.3 W 1 2 1018.2 - 0.0 - - - - - - -
25/09:30am 10.7 ENE 2 4 1017.9 - 0.0 - - - - - - -
25/09:00am 13.2 N 3 5 1017.9 - 0.2 - - - - - - -
25/08:30am 10.5 N 4 5 1017.7 - 0.2 - - - - - - -
25/08:00am 6.6 CALM 0 0 1017.5 - 0.2 - - - - - - -
25/07:30am 5.0 CALM 0 0 1017.2 - 0.2 - - - - - - -
25/07:00am 6.3 N 1 1 1017.1 - 0.2 - - - - - - -
25/06:30am 6.5 N 2 2 1016.8 - 0.2 - - - - - - -
25/06:00am 5.5 NW 1 2 1016.6 - 0.2 - - - - - - -
25/05:30am 7.1 NNW 1 2 1016.1 - 0.2 - - - - - - -
25/05:00am 7.1 N 1 2 1016.1 - 0.2 - - - - - - -
25/04:30am 6.7 ENE 2 4 1015.9 - 0.2 - - - - - - -
25/04:00am 7.1 SW 1 2 1016.0 - 0.2 - - - - - - -
25/03:30am 9.8 NE 3 5 1016.1 - 0.2 - - - - - - -
25/03:00am 7.5 CALM 0 0 1016.2 - 0.2 - - - - - - -
25/02:30am 9.2 NNE 1 3 1016.4 - 0.2 - - - - - - -
25/02:00am 7.7 NW 1 2 1016.5 - 0.2 - - - - - - -
25/01:30am 7.9 W 1 2 1016.2 - 0.2 - - - - - - -
25/01:00am 9.2 NW 1 3 1016.1 - 0.2 - - - - - - -
25/12:30am 9.3 CALM 0 2 1016.2 - 0.2 - - - - - - -
25/12:00am 9.1 W 0 1 1016.6 - 0.2 - - - - - - -
 
Date/Time
EST
Temp

°C
Wind Pressure Rain
since 9am
mm
Weather Cloud Vis
km
Sea
Height
m
Swell
Dir
 
Speed
knots
Gust
knots
hPa Trend Height
m
Period
s
Dir
24/11:30pm 9.0 CALM 0 1 1016.7 - 0.2 - - - - - - -
24/11:00pm 9.1 CALM 0 0 1017.0 - 0.2 - - - - - - -
24/10:30pm 9.5 CALM 0 1 1017.0 - 0.2 - - - - - - -
24/10:00pm 9.3 E 2 3 1017.0 - 0.2 - - - - - - -
24/09:30pm 10.3 NE 1 3 1017.2 - 0.0 - - - - - - -
24/09:00pm 10.6 N 2 4 1017.4 - 0.0 - - - - - - -
24/08:30pm 9.5 NNW 2 3 1017.2 - 0.0 - - - - - - -
24/08:00pm 10.5 NNE 1 3 1017.1 - 0.0 - - - - - - -
24/07:30pm 9.9 WNW 1 2 1017.1 - 0.0 - - - - - - -
24/07:00pm 10.5 NNW 2 3 1017.0 - 0.0 - - - - - - -
24/06:30pm 10.8 ENE 3 4 1016.5 - 0.0 - - - - - - -
24/06:00pm 10.8 ENE 3 6 1017.0 - 0.0 - - - - - - -
24/05:30pm 11.4 WNW 1 2 1016.9 - 0.0 - - - - - - -
24/05:00pm 11.6 WNW 3 4 1017.1 - 0.0 - - - - - - -
24/04:30pm 12.4 N 5 6 1016.7 - 0.0 - - - - - - -
24/04:00pm 12.7 NW 3 5 1016.6 - 0.0 - - - - - - -
24/03:30pm 13.4 WNW 4 7 1016.1 - 0.0 - - - - - - -
24/03:00pm 14.0 NW 2 3 1015.9 - 0.0 - - - - - - -
24/02:30pm 14.6 W 1 2 1015.7 - 0.0 - - - - - - -
24/02:00pm 14.3 CALM 0 1 1015.9 - 0.0 - - - - - - -
24/01:30pm 14.5 S 1 3 1016.1 - 0.0 - - - - - - -
24/01:00pm 14.3 S 1 2 1016.4 - 0.0 - - - - - - -
24/12:30pm 13.4 S 2 3 1016.8 - 0.0 - - - - - - -
24/12:00pm 13.5 S 2 4 1017.4 - 0.0 - - - - - - -
24/11:30am 13.5 SW 1 2 1017.9 - 0.0 - - - - - - -
24/11:00am 11.9 NNW 2 3 1018.5 - 0.0 - - - - - - -
24/10:30am 9.6 CALM 0 1 1018.8 - 0.0 - - - - - - -
24/10:00am 9.9 CALM 0 1 1019.0 - 0.0 - - - - - - -
24/09:30am 9.0 CALM 0 0 1019.0 - 0.0 - - - - - - -
24/09:00am 7.4 NW 2 2 1018.9 - 0.2 - - - - - - -
24/08:30am 6.1 NW 3 5 1018.6 - 0.2 - - - - - - -
24/08:00am 5.0 E 1 1 1018.6 - 0.2 - - - - - - -
24/07:30am 5.2 N 3 5 1018.5 - 0.2 - - - - - - -
24/07:00am 4.2 N 1 2 1018.7 - 0.2 - - - - - - -
24/06:30am 4.8 N 3 3 1018.3 - 0.2 - - - - - - -
24/06:00am 5.4 NW 2 3 1018.3 - 0.2 - - - - - - -
24/05:30am 5.6 NNW 2 3 1018.1 - 0.2 - - - - - - -
24/05:00am 5.6 N 1 2 1018.2 - 0.2 - - - - - - -
24/04:30am 4.8 N 2 3 1018.2 - 0.2 - - - - - - -
24/04:00am 5.0 CALM 0 0 1018.4 - 0.2 - - - - - - -
24/03:30am 4.7 CALM 0 0 1018.3 - 0.2 - - - - - - -
24/03:00am 4.0 N 1 3 1018.4 - 0.2 - - - - - - -
24/02:30am 5.2 N 2 2 1018.3 - 0.2 - - - - - - -
24/02:00am 4.2 NW 2 2 1018.6 - 0.2 - - - - - - -
24/01:30am 3.9 E 2 3 1018.6 - 0.2 - - - - - - -
24/01:00am 4.6 N 2 3 1019.0 - 0.2 - - - - - - -
24/12:30am 6.0 NNE 2 2 1019.2 - 0.2 - - - - - - -
24/12:00am 6.2 NNW 1 1 1019.8 - 0.2 - - - - - - -
 
Date/Time
EST
Temp

°C
Wind Pressure Rain
since 9am
mm
Weather Cloud Vis
km
Sea
Height
m
Swell
Dir
 
Speed
knots
Gust
knots
hPa Trend Height
m
Period
s
Dir
23/11:30pm 6.0 N 2 3 1020.2 - 0.2 - - - - - - -
23/11:00pm 6.6 CALM 0 1 1020.5 - 0.2 - - - - - - -
23/10:30pm 6.7 CALM 0 2 1020.8 - 0.2 - - - - - - -
23/10:00pm 6.3 NE 1 2 1021.1 - 0.2 - - - - - - -
23/09:30pm 6.5 NNE 1 2 1021.1 - 0.2 - - - - - - -
23/09:00pm 7.3 NNW 1 1 1021.2 - 0.2 - - - - - - -
23/08:30pm 8.5 CALM 0 1 1021.0 - 0.2 - - - - - - -
23/08:00pm 9.0 NE 1 2 1021.0 - 0.2 - - - - - - -
23/07:30pm 8.9 ENE 2 2 1020.9 - 0.2 - - - - - - -
23/07:00pm 9.1 NE 1 2 1021.1 - 0.2 - - - - - - -
23/06:30pm 9.1 E 1 3 1020.9 - 0.2 - - - - - - -
23/06:00pm 9.7 CALM 0 0 1021.0 - 0.2 - - - - - - -
23/05:30pm 10.1 ESE 1 2 1020.6 - 0.2 - - - - - - -
23/05:00pm 10.9 SE 2 3 1020.6 - 0.2 - - - - - - -
23/04:30pm 11.7 SE 2 4 1020.5 - 0.2 - - - - - - -
23/04:00pm 12.4 SSE 3 5 1020.6 - 0.2 - - - - - - -
23/03:30pm 13.1 SSE 3 5 1020.6 - 0.2 - - - - - - -
23/03:00pm 13.0 S 4 7 1020.8 - 0.2 - - - - - - -
23/02:30pm 13.2 SSE 5 7 1020.7 - 0.2 - - - - - - -
23/02:00pm 14.3 SSE 4 7 1020.9 - 0.2 - - - - - - -
23/01:30pm 14.2 ESE 2 4 1021.2 - 0.2 - - - - - - -
23/01:00pm 13.8 SE 3 5 1021.8 - 0.2 - - - - - - -
23/12:30pm 12.9 S 3 5 1022.3 - 0.2 - - - - - - -
23/12:00pm 12.2 SE 2 5 1023.0 - 0.0 - - - - - - -
23/11:30am 11.4 WSW 1 3 1023.7 - 0.0 - - - - - - -
23/11:00am 10.7 CALM 0 1 1024.3 - 0.0 - - - - - - -
23/10:30am 9.0 W 1 2 1024.6 - 0.0 - - - - - - -
23/10:00am 8.1 WNW 2 3 1025.0 - 0.0 - - - - - - -
23/09:30am 6.7 W 1 2 1025.0 - 0.0 - - - - - - -
23/09:00am 5.5 CALM 0 0 1025.2 - 0.0 - - - - - - -
23/08:30am 5.8 N 1 2 1025.2 - 0.0 - - - - - - -
23/08:00am 4.1 N 2 2 1025.1 - 0.0 - - - - - - -
23/07:30am 2.8 N 4 5 1024.8 - 0.0 - - - - - - -
23/07:00am 2.6 NNW 2 3 1024.9 - 0.0 - - - - - - -
23/06:30am 3.1 ENE 1 1 1024.4 - 0.0 - - - - - - -
23/06:00am 3.6 N 2 3 1024.3 - 0.0 - - - - - - -
23/05:30am 3.5 N 3 4 1024.1 - 0.0 - - - - - - -
23/05:00am 3.9 CALM 0 0 1024.1 - 0.0 - - - - - - -
23/04:30am 4.0 NNE 1 2 1024.0 - 0.0 - - - - - - -
23/04:00am 3.8 N 3 3 1024.0 - 0.0 - - - - - - -
23/03:30am 4.0 NNW 2 2 1023.9 - 0.0 - - - - - - -
23/03:00am 4.2 CALM 0 2 1023.9 - 0.0 - - - - - - -
23/02:30am 4.6 NNE 1 2 1024.2 - 0.0 - - - - - - -
23/02:00am 4.5 CALM 0 0 1024.4 - 0.0 - - - - - - -
23/01:30am 4.7 CALM 0 0 1024.7 - 0.0 - - - - - - -
23/01:00am 5.3 CALM 0 0 1024.8 - 0.0 - - - - - - -
23/12:30am 5.3 N 1 2 1024.8 - 0.0 - - - - - - -
23/12:00am 5.7 CALM 0 0 1025.1 - 0.0 - - - - - - -
 
Date/Time
EST
Temp

°C
Wind Pressure Rain
since 9am
mm
Weather Cloud Vis
km
Sea
Height
m
Swell
Dir
 
Speed
knots
Gust
knots
hPa Trend Height
m
Period
s
Dir
22/11:30pm 5.4 NW 2 3 1025.2 - 0.0 - - - - - - -
22/11:00pm 4.7 CALM 0 1 1025.4 - 0.0 - - - - - - -
22/10:30pm 5.1 CALM 0 0 1025.1 - 0.0 - - - - - - -
22/10:00pm 5.5 N 2 2 1025.3 - 0.0 - - - - - - -
22/09:30pm 6.2 N 2 3 1025.2 - 0.0 - - - - - - -

Other Formats:

Comma delimited format used in spreadsheet applications
http://www.bom.gov.au/fwo/IDV60701/IDV60701.95918.axf

JavaScript Object Notation format (JSON) in row-major order
http://www.bom.gov.au/fwo/IDV60701/IDV60701.95918.json